• Join FlightAware (Why Join?)
  • Login
  • US Flag 
08:50PM EST


 

Airport Tracker/Info


-or-


 

Live Flight TrackerFlight Track Log ✈ USC105 ✈ 28-Jun-2013 ✈ KDPA - KYIP

Flight Track Log - Related Links

Times and Time Zones

All times are in EDT time to prevent confusion due to time zone crossing. See the USC105 flight status page for this flight to view local times or setup timezone preferences in your user account.

Time Position Orientation Groundspeed Altitude Reporting Facility
EDT Latitude Longitude Course Direction KTS MPH feet Rate Location/Type
06:00AM 41.8333 -88.2167 185° South 143 165 2,600  Level Chicago TRACON
06:01AM 41.8000 -88.2000 160° South 147 169 3,500 900 Climbing Chicago TRACON
06:02AM 41.7667 -88.1667 143° Southeast 150 173 4,400 840 Climbing Chicago TRACON
06:04AM 41.7333 -88.1333 143° Southeast 152 175 5,300 840 Climbing Chicago TRACON
06:05AM 41.9449 -87.8250 153° Southeast  Level Estimated
06:05AM 41.7000 -88.1000 143° Southeast 152 175 6,200  Level Chicago TRACON
06:05AM 41.6667 -88.0667 143° Southeast 154 177 6,800 420 Climbing Chicago TRACON
06:06AM 41.8922 -87.8306 185° South  Level FlightAware Approximate
06:06AM 41.6500 -88.0167 114° Southeast 173 199 7,000  Level Chicago TRACON
06:07AM 41.6500 -87.9500 90° East 182 209 7,000  Level Chicago TRACON
06:08AM 41.6500 -87.8833 90° East 187 215 7,000  Level Chicago TRACON
06:09AM 41.6333 -87.8167 108° East 186 214 7,000  Level Chicago TRACON
06:10AM 41.6500 -87.7500 71° East 211 243 7,000  Level Chicago TRACON
06:11AM 41.6667 -87.6833 71° East 181 208 7,000  Level Chicago TRACON
06:12AM 41.6833 -87.6167 71° East 182 209 7,000  Level Chicago TRACON
06:13AM 41.6833 -87.5500 90° East 182 209 7,000  Level Chicago TRACON
06:14AM 41.7000 -87.4833 71° East 181 208 7,000  Level Chicago TRACON
06:16AM 41.7103 -87.3883 82° East 181 208 7,000  Level Chicago Center
06:17AM 41.7200 -87.3233 79° East 180 207 7,000  Level Chicago Center
06:18AM 41.7300 -87.2567 79° East 182 209 7,000  Level Chicago Center
06:19AM 41.7406 -87.1911 78° East 182 209 7,000  Level Chicago Center
06:20AM 41.7506 -87.1244 79° East 183 211 7,000  Level Chicago Center
06:21AM 41.7600 -87.0583 79° East 183 211 7,000  Level Chicago Center
06:22AM 41.7714 -86.9894 77° East 187 215 7,000  Level Chicago Center
06:23AM 41.7822 -86.9231 78° East 185 213 7,000  Level Chicago Center
06:24AM 41.7911 -86.8558 80° East 185 213 7,000  Level Chicago Center
06:25AM 41.8014 -86.7892 78° East 185 213 7,000  Level Chicago Center
06:26AM 41.8117 -86.7225 78° East 185 213 7,000  Level Chicago Center
06:27AM 41.8217 -86.6514 79° East 182 209 7,000  Level Chicago Center
06:28AM 41.8319 -86.5831 79° East 185 213 7,000  Level Chicago Center
06:29AM 41.8414 -86.5150 79° East 185 213 7,000  Level Chicago Center
06:30AM 41.8517 -86.4483 78° East 184 212 7,000  Level Chicago Center
06:31AM 41.8622 -86.3803 78° East 185 213 7,000  Level Chicago Center
06:32AM 41.8722 -86.3128 79° East 185 213 7,000  Level Chicago Center
06:33AM 41.8819 -86.2458 79° East 182 209 7,000  Level Chicago Center
06:34AM 41.8917 -86.1767 79° East 187 215 7,000  Level Chicago Center
06:35AM 41.9008 -86.1094 80° East 183 211 7,000  Level Chicago Center
06:36AM 41.9128 -86.0300 79° East 181 208 7,000  Level Chicago Center
06:37AM 41.9222 -85.9636 79° East 181 208 7,100  Climbing Chicago Center
06:38AM 41.9314 -85.8961 80° East 183 211 7,100  Level Chicago Center
06:39AM 41.9411 -85.8278 79° East 185 213 7,100  Level Chicago Center
06:40AM 41.9511 -85.7608 79° East 185 213 7,100  Level Chicago Center
06:41AM 41.9600 -85.6925 80° East 184 212 7,100  Level Chicago Center
06:42AM 41.9697 -85.6233 79° East 188 216 7,100  Level Chicago Center
06:43AM 41.9797 -85.5542 79° East 189 217 7,100  Level Chicago Center
06:44AM 41.9894 -85.4839 79° East 189 217 7,100  Level Chicago Center
06:45AM 41.9992 -85.4147 79° East 189 217 7,100  Level Chicago Center
06:46AM 42.0083 -85.3456 80° East 188 216 7,100  Level Chicago Center
06:47AM 42.0181 -85.2764 79° East 188 216 7,100  Level Chicago Center
06:48AM 42.0275 -85.2067 80° East 188 216 7,100  Level Chicago Center
06:49AM 42.0372 -85.1378 79° East 188 216 7,100  Level Chicago Center
06:50AM 42.0461 -85.0683 80° East 188 216 7,100  Level Chicago Center
06:51AM 42.0558 -84.9992 79° East 188 216 7,100  Level Chicago Center
06:52AM 42.0647 -84.9308 80° East 187 215 7,100  Level Chicago Center
06:53AM 42.0733 -84.8606 81° East 188 216 7,100  Level Chicago Center
06:54AM 42.0828 -84.7900 80° East 190 219 7,100  Level Chicago Center
06:55AM 42.0925 -84.7217 79° East 188 216 7,100  Level Chicago Center
06:56AM 42.1011 -84.6503 81° East 191 220 7,100  Level Chicago Center
06:57AM 42.1097 -84.5808 80° East 190 219 7,100  Level Chicago Center
06:58AM 42.1197 -84.5069 80° East 191 220 7,100  Level Chicago Center
06:59AM 42.1283 -84.4381 80° East 189 217 7,100  Level Chicago Center
07:00AM 42.1372 -84.3681 80° East 190 219 7,100  Level Chicago Center
07:01AM 42.1456 -84.3025 80° East 190 219 7,100  Level Cleveland Center
07:02AM 42.1542 -84.2303 81° East 190 219 7,100  Level Cleveland Center
07:03AM 42.1647 -84.1608 78° East 188 216 7,100 -120 Level Cleveland Center
07:04AM 42.1736 -84.0800 82° East 187 215 6,900 -300 Descending Cleveland Center
07:05AM 42.1822 -84.0019 82° East 195 224 6,500 -360 Descending Cleveland Center
07:06AM 42.1928 -83.9239 80° East 192 221 6,200 -660 Descending Cleveland Center
07:07AM 42.1611 -83.8664 127° Southeast 207 238 5,200 -1,080 Descending Cleveland Center
07:09AM 42.1211 -83.8056 132° Southeast 194 223 4,100 -960 Descending Cleveland Center
07:10AM 42.1061 -83.7486 110° East 179 206 3,200 -540 Descending Cleveland Center
07:11AM 42.1303 -83.6967 58° Northeast 158 182 3,100 -120 Descending Cleveland Center
07:12AM 42.1589 -83.6447 53° Northeast 149 171 3,000 -540 Descending Cleveland Center
07:12AM 42.1825 -83.6153 43° Northeast 153 176 2,200 -900 Descending Cleveland Center
07:13AM 42.2108 -83.5744 47° Northeast 158 182 1,500 -720 Descending Cleveland Center